createdAt,value
2023-02-02T00:01:58.387Z,5.79
2023-02-02T00:04:28.849Z,5.72
2023-02-02T00:06:59.721Z,6.04
2023-02-02T00:09:30.483Z,6.08
2023-02-02T00:12:00.382Z,5.86
2023-02-02T00:14:30.734Z,5.64
2023-02-02T00:16:59.774Z,5.21
2023-02-02T00:19:31.678Z,5.25
2023-02-02T00:22:02.002Z,5.61
2023-02-02T00:24:30.831Z,5.56
2023-02-02T00:27:01.009Z,5.59
2023-02-02T00:29:32.367Z,5.49
2023-02-02T00:32:01.990Z,5.34
2023-02-02T00:34:30.895Z,5.18
2023-02-02T00:37:01.239Z,5.22
2023-02-02T00:39:30.888Z,5.42
2023-02-02T00:41:59.747Z,5.43
2023-02-02T00:44:46.174Z,5.72
2023-02-02T00:47:15.075Z,5.83
2023-02-02T00:49:43.954Z,5.82
2023-02-02T00:52:15.576Z,5.96
2023-02-02T00:54:44.449Z,5.79
2023-02-02T00:57:14.322Z,5.73
2023-02-02T00:59:43.545Z,5.91
2023-02-02T01:02:13.384Z,5.88
2023-02-02T01:04:42.563Z,5.96
2023-02-02T01:07:11.382Z,5.98
2023-02-02T01:09:41.614Z,6.07
2023-02-02T01:12:10.532Z,5.93
2023-02-02T01:14:39.369Z,5.89
2023-02-02T01:17:08.233Z,5.75
2023-02-02T01:19:37.062Z,5.34
2023-02-02T01:22:06.064Z,5.08
2023-02-02T01:24:35.358Z,5.33
2023-02-02T01:27:05.662Z,5.28
2023-02-02T01:29:34.510Z,4.76
2023-02-02T01:32:03.615Z,4.52
2023-02-02T01:34:33.391Z,4.75
2023-02-02T01:37:02.190Z,4.77
2023-02-02T01:39:30.993Z,4.97
2023-02-02T01:41:59.935Z,4.99
2023-02-02T01:45:21.631Z,4.74
2023-02-02T01:47:55.340Z,4.67
2023-02-02T01:50:28.222Z,4.68
2023-02-02T01:52:59.408Z,4.50
2023-02-02T01:55:30.534Z,4.27
2023-02-02T01:58:03.271Z,4.50
2023-02-02T02:00:32.106Z,4.37
2023-02-02T02:03:07.011Z,4.62
2023-02-02T02:05:37.610Z,4.48
2023-02-02T02:08:13.248Z,4.53
2023-02-02T02:10:42.110Z,4.25
2023-02-02T02:13:11.688Z,4.20
2023-02-02T02:16:05.883Z,4.23
2023-02-02T02:18:46.191Z,4.13
2023-02-02T02:21:51.532Z,4.00
2023-02-02T02:25:08.255Z,4.13
2023-02-02T02:31:58.803Z,4.14
2023-02-02T02:34:43.248Z,4.34
2023-02-02T02:37:21.358Z,4.32
2023-02-02T02:39:55.642Z,4.28
2023-02-02T02:42:31.279Z,4.23
2023-02-02T02:45:03.968Z,4.37
2023-02-02T02:47:33.930Z,4.54
2023-02-02T02:50:06.473Z,4.51
2023-02-02T02:52:37.140Z,4.34
2023-02-02T02:55:10.782Z,4.32
2023-02-02T02:57:54.393Z,4.29
2023-02-02T03:00:36.519Z,4.35
2023-02-02T03:03:13.824Z,4.47
2023-02-02T03:05:52.236Z,4.39
2023-02-02T03:08:28.615Z,4.30
2023-02-02T03:11:00.042Z,4.28
2023-02-02T03:13:31.653Z,4.34
2023-02-02T03:16:00.948Z,4.31
2023-02-02T03:18:31.577Z,4.39
2023-02-02T03:21:02.020Z,4.53
2023-02-02T03:23:31.044Z,4.32
2023-02-02T03:26:00.193Z,4.19
2023-02-02T03:28:30.629Z,3.98
2023-02-02T03:31:01.176Z,4.09
2023-02-02T03:33:31.785Z,4.16
2023-02-02T03:36:02.055Z,4.03
2023-02-02T03:38:31.095Z,4.11
2023-02-02T03:41:00.035Z,4.19
2023-02-02T03:43:29.619Z,4.03
2023-02-02T03:45:59.042Z,3.80
2023-02-02T03:48:28.454Z,3.95
2023-02-02T03:50:57.908Z,4.04
2023-02-02T03:53:28.110Z,3.95
2023-02-02T03:55:56.953Z,4.03
2023-02-02T03:58:25.813Z,3.53
2023-02-02T04:00:55.705Z,3.49
2023-02-02T04:03:24.520Z,3.31
2023-02-02T04:05:53.396Z,3.43
2023-02-02T04:08:22.314Z,3.46
2023-02-02T04:10:52.552Z,3.43
2023-02-02T04:13:21.852Z,3.21
2023-02-02T04:15:58.346Z,3.34
2023-02-02T04:18:27.195Z,3.25
2023-02-02T04:21:00.035Z,3.08
2023-02-02T04:23:30.350Z,3.28
2023-02-02T04:26:01.744Z,3.05
2023-02-02T04:28:30.648Z,3.20
2023-02-02T04:30:59.912Z,3.22
2023-02-02T04:33:30.089Z,3.39
2023-02-02T04:35:58.864Z,2.97
2023-02-02T04:38:27.732Z,3.03
2023-02-02T04:40:56.627Z,3.25
2023-02-02T04:43:26.928Z,2.96
2023-02-02T04:45:58.861Z,3.15
2023-02-02T04:48:27.924Z,3.19
2023-02-02T04:51:00.607Z,2.87
2023-02-02T04:53:30.164Z,2.85
2023-02-02T04:55:59.684Z,3.07
2023-02-02T04:58:29.905Z,2.78
2023-02-02T05:00:58.751Z,2.63
2023-02-02T05:03:27.581Z,2.70
2023-02-02T05:06:03.705Z,2.82
2023-02-02T05:08:33.051Z,2.77
2023-02-02T05:11:02.074Z,2.74
2023-02-02T05:13:32.321Z,2.79
2023-02-02T05:16:01.159Z,2.62
2023-02-02T05:18:31.718Z,2.71
2023-02-02T05:21:02.005Z,2.60
2023-02-02T05:23:31.604Z,2.73
2023-02-02T05:26:00.420Z,2.79
2023-02-02T05:28:29.637Z,2.18
2023-02-02T05:30:59.848Z,2.56
2023-02-02T05:33:29.498Z,2.48
2023-02-02T05:35:58.752Z,2.65
2023-02-02T05:38:27.588Z,2.73
2023-02-02T05:40:57.287Z,2.70
2023-02-02T05:43:27.409Z,2.56
2023-02-02T05:45:56.583Z,2.86
2023-02-02T05:48:26.933Z,2.95
2023-02-02T05:51:02.845Z,2.97
2023-02-02T05:53:32.812Z,2.85
2023-02-02T05:56:01.691Z,3.01
2023-02-02T05:58:30.699Z,3.11
2023-02-02T06:00:59.530Z,2.99
2023-02-02T06:03:29.841Z,3.32
2023-02-02T06:05:58.698Z,3.31
2023-02-02T06:08:27.641Z,3.58
2023-02-02T06:10:56.457Z,3.68
2023-02-02T06:13:25.352Z,3.86
2023-02-02T06:15:54.244Z,3.86
2023-02-02T06:18:23.023Z,3.86
2023-02-02T06:20:59.085Z,3.93
2023-02-02T06:23:27.965Z,3.45
2023-02-02T06:25:56.831Z,3.77
2023-02-02T06:28:25.846Z,3.88
2023-02-02T06:30:54.727Z,3.90
2023-02-02T06:33:23.606Z,3.92
2023-02-02T06:35:52.376Z,4.03
2023-02-02T06:38:22.587Z,4.19
2023-02-02T06:40:51.419Z,4.26
2023-02-02T06:43:20.477Z,4.51
2023-02-02T06:45:49.300Z,4.69
2023-02-02T06:48:18.149Z,4.95
2023-02-02T06:50:47.019Z,4.86
2023-02-02T06:53:15.986Z,4.96
2023-02-02T06:55:54.249Z,5.13
2023-02-02T06:58:23.171Z,5.15
2023-02-02T07:00:52.113Z,5.24
2023-02-02T07:03:22.433Z,5.40
2023-02-02T07:05:51.315Z,5.04
2023-02-02T07:08:20.287Z,4.98
2023-02-02T07:11:12.671Z,5.09
2023-02-02T07:13:39.497Z,5.62
2023-02-02T07:16:09.478Z,5.77
2023-02-02T07:18:40.433Z,5.68
2023-02-02T07:21:09.355Z,5.82
2023-02-02T07:23:38.159Z,5.84
2023-02-02T07:26:10.414Z,5.75
2023-02-02T07:28:39.312Z,6.36
2023-02-02T07:31:15.961Z,7.09
2023-02-02T07:33:45.946Z,8.10
2023-02-02T07:36:17.394Z,8.82
2023-02-02T07:38:48.330Z,7.50
2023-02-02T07:41:18.557Z,7.00
2023-02-02T07:43:48.574Z,6.31
2023-02-02T07:46:18.691Z,5.59
2023-02-02T07:48:47.706Z,5.98
2023-02-02T07:51:18.578Z,5.77
2023-02-02T07:53:48.888Z,5.66
2023-02-02T07:56:20.854Z,5.72
2023-02-02T07:58:52.286Z,6.34
2023-02-02T08:01:23.119Z,6.40
2023-02-02T08:03:53.390Z,5.97
2023-02-02T08:06:24.595Z,6.58
2023-02-02T08:08:53.665Z,6.18
2023-02-02T08:11:25.378Z,6.60
2023-02-02T08:13:56.393Z,7.25
2023-02-02T08:16:27.233Z,7.25
2023-02-02T08:18:56.215Z,6.94
2023-02-02T08:21:25.499Z,7.28
2023-02-02T08:23:55.021Z,7.45
2023-02-02T08:26:26.834Z,7.28
2023-02-02T08:28:57.837Z,7.51
2023-02-02T08:31:29.605Z,7.35
2023-02-02T08:33:59.087Z,7.17
2023-02-02T08:36:30.125Z,7.44
2023-02-02T08:39:03.053Z,7.06
2023-02-02T08:41:33.956Z,7.46
2023-02-02T08:44:03.265Z,7.53
2023-02-02T08:46:32.127Z,7.39
2023-02-02T08:49:01.001Z,6.96
2023-02-02T08:51:29.793Z,6.49
2023-02-02T08:53:58.551Z,6.37
2023-02-02T08:56:27.430Z,6.10
2023-02-02T08:58:59.769Z,6.48
2023-02-02T09:01:30.592Z,6.71
2023-02-02T09:04:02.513Z,6.65
2023-02-02T09:06:34.400Z,6.94
2023-02-02T09:09:04.839Z,7.03
2023-02-02T09:11:34.165Z,7.36
2023-02-02T09:14:06.991Z,7.39
2023-02-02T09:16:37.022Z,7.89
2023-02-02T09:19:06.223Z,7.28
2023-02-02T09:21:37.154Z,7.35
2023-02-02T09:24:10.449Z,7.37
2023-02-02T09:26:40.530Z,7.94
2023-02-02T09:29:14.331Z,7.75
2023-02-02T09:31:43.446Z,7.72
2023-02-02T09:34:13.768Z,7.28
2023-02-02T09:36:43.792Z,7.62
2023-02-02T09:39:15.093Z,8.00
2023-02-02T09:42:12.108Z,8.73
2023-02-02T09:45:07.291Z,8.97
2023-02-02T09:47:52.728Z,8.74
2023-02-02T09:50:35.721Z,8.75
2023-02-02T09:53:12.383Z,8.90
2023-02-02T09:55:42.921Z,8.77
2023-02-02T09:58:17.812Z,8.52
2023-02-02T10:00:55.147Z,8.65
2023-02-02T10:03:29.459Z,8.70
2023-02-02T10:06:04.995Z,8.30
2023-02-02T10:08:39.904Z,8.36
2023-02-02T10:11:27.378Z,8.23
2023-02-02T10:14:00.883Z,8.56
2023-02-02T10:16:32.672Z,8.61
2023-02-02T10:19:05.821Z,8.53
2023-02-02T10:21:41.978Z,8.29
2023-02-02T10:24:19.485Z,8.10
2023-02-02T10:26:51.007Z,8.46
2023-02-02T10:29:48.184Z,8.78
2023-02-02T10:32:24.924Z,9.63
2023-02-02T10:35:13.792Z,8.90
2023-02-02T10:37:51.508Z,9.38
2023-02-02T10:40:34.275Z,9.90
2023-02-02T10:43:39.216Z,10.39
2023-02-02T10:46:15.061Z,10.27
2023-02-02T10:48:48.141Z,9.64
2023-02-02T10:51:23.433Z,9.58
2023-02-02T10:53:54.433Z,8.88
2023-02-02T10:56:30.391Z,9.39
2023-02-02T10:59:04.594Z,9.59
2023-02-02T11:01:33.556Z,10.09
2023-02-02T11:04:21.539Z,9.69
2023-02-02T11:06:53.439Z,9.78
2023-02-02T11:09:25.665Z,9.78
2023-02-02T11:11:58.568Z,9.19
2023-02-02T11:14:44.491Z,9.28
2023-02-02T11:17:21.512Z,8.97
2023-02-02T11:19:52.389Z,8.53
2023-02-02T11:22:29.225Z,8.37
2023-02-02T11:24:59.627Z,8.49
2023-02-02T11:27:32.389Z,8.35
2023-02-02T11:30:10.983Z,8.83
2023-02-02T11:32:39.963Z,8.70
2023-02-02T11:35:22.324Z,9.05
2023-02-02T11:37:56.968Z,8.92
2023-02-02T11:40:32.801Z,8.56
2023-02-02T11:43:04.689Z,8.28
2023-02-02T11:45:36.700Z,8.28
2023-02-02T11:48:16.985Z,8.28
2023-02-02T11:50:53.760Z,8.51
2023-02-02T11:53:28.315Z,8.81
2023-02-02T11:56:00.821Z,9.14
2023-02-02T11:58:31.398Z,9.44
2023-02-02T12:01:03.806Z,8.99
2023-02-02T12:03:35.519Z,9.40
2023-02-02T12:06:20.623Z,10.03
2023-02-02T12:08:50.380Z,9.82
2023-02-02T12:11:35.261Z,9.92
2023-02-02T12:14:18.775Z,10.85
2023-02-02T12:16:59.204Z,10.97
2023-02-02T12:19:46.372Z,10.00
2023-02-02T12:22:30.439Z,9.74
2023-02-02T12:25:10.927Z,9.36
2023-02-02T12:27:48.690Z,9.68
2023-02-02T12:30:27.796Z,10.12
2023-02-02T12:33:08.682Z,10.29
2023-02-02T12:36:02.363Z,10.96
2023-02-02T12:38:55.298Z,11.46
2023-02-02T12:41:37.027Z,12.06
2023-02-02T12:44:15.409Z,11.76
2023-02-02T12:46:58.247Z,10.35
2023-02-02T12:49:49.258Z,10.10
2023-02-02T12:52:31.936Z,9.96
2023-02-02T12:55:19.067Z,9.72
2023-02-02T12:57:57.733Z,9.53
2023-02-02T13:00:51.415Z,9.90
2023-02-02T13:03:31.456Z,10.55
2023-02-02T13:06:14.005Z,10.28
2023-02-02T13:08:52.214Z,9.94
2023-02-02T13:11:34.554Z,10.32
2023-02-02T13:14:10.871Z,10.31
2023-02-02T13:16:44.404Z,10.55
2023-02-02T13:19:17.340Z,11.63
2023-02-02T13:21:47.620Z,11.63
2023-02-02T13:24:27.572Z,11.44
2023-02-02T13:26:59.766Z,10.97
2023-02-02T13:29:47.749Z,11.10
2023-02-02T13:32:24.498Z,10.72
2023-02-02T13:34:59.553Z,10.24
2023-02-02T13:37:37.381Z,9.98
2023-02-02T13:40:21.529Z,10.25
2023-02-02T13:43:00.630Z,10.36
2023-02-02T13:45:42.899Z,10.37
2023-02-02T13:48:31.031Z,10.12
2023-02-02T13:51:23.990Z,9.45
2023-02-02T13:54:11.913Z,9.78
2023-02-02T13:56:49.076Z,9.73
2023-02-02T13:59:49.021Z,9.73
2023-02-02T14:02:25.037Z,8.81
2023-02-02T14:04:56.562Z,8.49
2023-02-02T14:07:40.787Z,8.51
2023-02-02T14:10:25.410Z,8.39
2023-02-02T14:12:56.288Z,8.32
2023-02-02T14:15:40.367Z,7.84
2023-02-02T14:18:09.434Z,7.63
2023-02-02T14:20:47.041Z,7.64
2023-02-02T14:23:51.306Z,7.56
2023-02-02T14:26:43.683Z,7.60
2023-02-02T14:29:40.693Z,8.03
2023-02-02T14:32:34.517Z,7.61
2023-02-02T14:35:36.224Z,7.63
2023-02-02T14:38:09.283Z,7.40
2023-02-02T14:40:48.539Z,7.09
2023-02-02T14:43:42.754Z,7.11
2023-02-02T14:46:24.799Z,6.96
2023-02-02T14:49:14.537Z,6.51
2023-02-02T14:51:51.425Z,6.47
2023-02-02T14:54:25.930Z,6.38
2023-02-02T14:56:59.493Z,6.69
2023-02-02T14:59:34.151Z,6.56
2023-02-02T15:02:18.094Z,6.74
2023-02-02T15:04:49.185Z,6.88
2023-02-02T15:07:54.614Z,6.81
2023-02-02T15:11:00.689Z,6.75
2023-02-02T15:13:30.506Z,6.43
2023-02-02T15:16:08.343Z,5.96
2023-02-02T15:18:44.972Z,5.96
2023-02-02T15:21:22.056Z,5.44
2023-02-02T15:23:51.036Z,5.63
2023-02-02T15:26:25.086Z,5.66
2023-02-02T15:28:58.488Z,5.50
2023-02-02T15:31:33.954Z,5.12
2023-02-02T15:34:10.438Z,5.26
2023-02-02T15:36:42.331Z,5.20
2023-02-02T15:39:27.675Z,5.17
2023-02-02T15:42:11.820Z,4.99
2023-02-02T15:44:40.619Z,4.96
2023-02-02T15:47:14.157Z,5.13
2023-02-02T15:49:43.716Z,4.90
2023-02-02T15:52:16.957Z,5.04
2023-02-02T15:54:54.292Z,5.32
2023-02-02T15:57:30.558Z,5.16
2023-02-02T16:00:00.396Z,5.07
2023-02-02T16:02:37.182Z,5.09
2023-02-02T16:05:24.761Z,5.16
2023-02-02T16:08:05.111Z,5.12
2023-02-02T16:10:35.715Z,5.30
2023-02-02T16:13:05.007Z,5.37
2023-02-02T16:15:33.944Z,5.26
2023-02-02T16:18:04.114Z,5.02
2023-02-02T16:20:35.994Z,4.85
2023-02-02T16:23:15.130Z,4.76
2023-02-02T16:25:49.691Z,4.63
2023-02-02T16:28:21.995Z,4.82
2023-02-02T16:30:52.685Z,4.68
2023-02-02T16:33:35.704Z,4.59
2023-02-02T16:36:12.351Z,4.61
2023-02-02T16:38:42.943Z,4.59
2023-02-02T16:41:12.812Z,4.61
2023-02-02T16:43:43.019Z,4.60
2023-02-02T16:46:13.862Z,4.54
2023-02-02T16:48:45.289Z,4.68
2023-02-02T16:51:27.335Z,4.93
2023-02-02T16:54:03.667Z,4.78
2023-02-02T16:56:36.078Z,5.20
2023-02-02T16:59:09.571Z,4.99
2023-02-02T17:01:42.060Z,4.94
2023-02-02T17:04:21.087Z,5.21
2023-02-02T17:06:53.085Z,5.16
2023-02-02T17:09:41.029Z,5.10
2023-02-02T17:12:34.147Z,5.16
2023-02-02T17:15:25.796Z,5.23
2023-02-02T17:17:54.827Z,5.34
2023-02-02T17:20:24.084Z,5.36
2023-02-02T17:22:57.522Z,4.66
2023-02-02T17:25:30.964Z,4.57
2023-02-02T17:28:02.006Z,4.19
2023-02-02T17:30:31.537Z,4.01
2023-02-02T17:33:00.536Z,4.41
2023-02-02T17:35:39.857Z,4.44
2023-02-02T17:38:17.520Z,4.58
2023-02-02T17:40:47.786Z,4.71
2023-02-02T17:43:16.927Z,4.76
2023-02-02T17:45:45.928Z,5.05
2023-02-02T17:48:15.520Z,5.27
2023-02-02T17:50:44.927Z,5.29
2023-02-02T17:53:15.633Z,5.54
2023-02-02T17:55:48.176Z,5.79
2023-02-02T17:58:18.155Z,5.95
2023-02-02T18:00:48.809Z,5.71
2023-02-02T18:03:22.420Z,5.57
2023-02-02T18:05:51.683Z,5.64
2023-02-02T18:08:20.626Z,5.51
2023-02-02T18:10:50.900Z,5.28
2023-02-02T18:13:22.980Z,5.41
2023-02-02T18:15:52.972Z,5.30
2023-02-02T18:18:22.071Z,5.28
2023-02-02T18:20:52.134Z,5.31
2023-02-02T18:23:21.587Z,5.12
2023-02-02T18:25:52.919Z,5.22
2023-02-02T18:28:22.084Z,5.28
2023-02-02T18:30:51.019Z,5.34
2023-02-02T18:33:20.372Z,5.71
2023-02-02T18:35:49.631Z,5.64
2023-02-02T18:38:19.733Z,5.21
2023-02-02T18:40:58.960Z,5.02
2023-02-02T18:43:27.786Z,5.29
2023-02-02T18:46:01.394Z,5.60
2023-02-02T18:48:37.104Z,5.86
2023-02-02T18:51:07.021Z,5.89
2023-02-02T18:53:36.272Z,5.69
2023-02-02T18:56:07.625Z,5.22
2023-02-02T18:58:36.781Z,5.31
2023-02-02T19:01:08.675Z,4.94
2023-02-02T19:03:37.802Z,4.86
2023-02-02T19:06:25.376Z,4.68
2023-02-02T19:08:54.656Z,4.47
2023-02-02T19:11:26.813Z,4.31
2023-02-02T19:13:55.662Z,4.85
2023-02-02T19:16:27.711Z,4.59
2023-02-02T19:18:58.474Z,4.61
2023-02-02T19:21:31.483Z,4.96
2023-02-02T19:24:01.068Z,4.60
2023-02-02T19:26:35.141Z,4.38
2023-02-02T19:29:14.186Z,4.63
2023-02-02T19:31:43.821Z,4.38
2023-02-02T19:34:14.554Z,4.51
2023-02-02T19:36:46.851Z,4.34
2023-02-02T19:39:18.517Z,4.38
2023-02-02T19:41:48.927Z,4.81
2023-02-02T19:44:20.330Z,4.56
2023-02-02T19:46:51.655Z,4.19
2023-02-02T19:49:28.208Z,4.66
2023-02-02T19:51:59.372Z,4.73
2023-02-02T19:54:34.974Z,4.58
2023-02-02T19:57:15.717Z,4.67
2023-02-02T19:59:48.189Z,4.49
2023-02-02T20:02:39.261Z,3.97
2023-02-02T20:05:19.524Z,3.75
2023-02-02T20:07:49.392Z,3.60
2023-02-02T20:10:23.821Z,3.40
2023-02-02T20:12:54.560Z,3.44
2023-02-02T20:15:32.469Z,3.55
2023-02-02T20:18:03.310Z,3.01
2023-02-02T20:20:38.659Z,2.79
2023-02-02T20:23:40.300Z,3.51
2023-02-02T20:26:22.234Z,3.57
2023-02-02T20:28:53.935Z,3.34
2023-02-02T20:31:26.044Z,3.40
2023-02-02T20:33:57.716Z,3.15
2023-02-02T20:36:35.774Z,3.30
2023-02-02T20:39:26.393Z,3.35
2023-02-02T20:41:57.269Z,3.06
2023-02-02T20:44:28.569Z,3.52
2023-02-02T20:47:00.264Z,3.35
2023-02-02T20:49:31.845Z,3.55
2023-02-02T20:52:03.733Z,4.20
2023-02-02T20:54:33.213Z,3.93
2023-02-02T20:57:02.448Z,3.08
2023-02-02T20:59:33.063Z,3.04
2023-02-02T21:02:02.189Z,3.26
2023-02-02T21:04:31.056Z,3.37
2023-02-02T21:07:00.866Z,3.61
2023-02-02T21:09:29.809Z,3.72
2023-02-02T21:11:58.699Z,3.67
2023-02-02T21:14:27.751Z,3.83
2023-02-02T21:17:12.923Z,3.51
2023-02-02T21:19:43.935Z,3.57
2023-02-02T21:22:13.583Z,3.36
2023-02-02T21:24:42.738Z,3.53
2023-02-02T21:27:11.657Z,3.78
2023-02-02T21:29:40.573Z,3.74
2023-02-02T21:32:10.914Z,3.81
2023-02-02T21:34:39.791Z,3.96
2023-02-02T21:37:13.756Z,3.72
2023-02-02T21:39:48.389Z,3.15
2023-02-02T21:42:17.961Z,2.84
2023-02-02T21:44:49.774Z,2.90
2023-02-02T21:47:28.068Z,2.96
2023-02-02T21:50:00.239Z,2.67
2023-02-02T21:52:34.858Z,2.68
2023-02-02T21:55:28.495Z,2.42
2023-02-02T21:57:59.443Z,2.62
2023-02-02T22:00:31.041Z,2.17
2023-02-02T22:03:02.117Z,2.47
2023-02-02T22:05:36.472Z,2.60
2023-02-02T22:08:22.130Z,3.36
2023-02-02T22:10:51.052Z,3.30
2023-02-02T22:13:22.069Z,3.68
2023-02-02T22:15:53.171Z,3.65
2023-02-02T22:18:25.489Z,3.76
2023-02-02T22:20:56.613Z,2.94
2023-02-02T22:23:28.638Z,3.37
2023-02-02T22:25:59.595Z,3.34
2023-02-02T22:28:33.720Z,3.40
2023-02-02T22:31:03.385Z,3.50
2023-02-02T22:33:33.764Z,3.57
2023-02-02T22:36:03.354Z,3.59
2023-02-02T22:38:32.155Z,3.73
2023-02-02T22:41:00.972Z,3.43
2023-02-02T22:43:29.814Z,3.84
2023-02-02T22:46:00.782Z,3.47
2023-02-02T22:48:29.735Z,4.17
2023-02-02T22:51:00.054Z,4.00
2023-02-02T22:53:29.646Z,3.64
2023-02-02T22:55:58.485Z,3.23
2023-02-02T22:58:27.297Z,3.88
2023-02-02T23:00:56.227Z,4.27
2023-02-02T23:03:25.325Z,4.14
2023-02-02T23:05:54.188Z,3.49
2023-02-02T23:08:24.477Z,4.02
2023-02-02T23:10:53.323Z,3.67
2023-02-02T23:13:22.159Z,3.17
2023-02-02T23:15:51.049Z,3.34
2023-02-02T23:18:19.976Z,3.07
2023-02-02T23:20:49.034Z,3.75
2023-02-02T23:23:17.926Z,4.15
2023-02-02T23:25:48.167Z,3.89
2023-02-02T23:28:17.071Z,4.09
2023-02-02T23:30:46.009Z,4.06
2023-02-02T23:33:14.898Z,4.24
2023-02-02T23:35:44.106Z,4.01
2023-02-02T23:38:13.580Z,4.40
2023-02-02T23:40:42.423Z,4.51
2023-02-02T23:43:13.193Z,4.39
2023-02-02T23:45:42.267Z,4.54
2023-02-02T23:48:13.150Z,4.65
2023-02-02T23:50:42.933Z,4.86
2023-02-02T23:53:12.464Z,4.96
2023-02-02T23:55:42.799Z,4.59
2023-02-02T23:58:14.004Z,4.48
